createdAt,value
2022-12-23T00:00:10.918Z,980.07
2022-12-23T00:01:12.720Z,980
2022-12-23T00:02:14.585Z,980.01
2022-12-23T00:03:16.334Z,979.96
2022-12-23T00:04:18.021Z,979.99
2022-12-23T00:05:19.660Z,980.01
2022-12-23T00:06:21.389Z,980.03
2022-12-23T00:07:23.100Z,979.99
2022-12-23T00:08:24.824Z,979.97
2022-12-23T00:09:26.613Z,979.95
2022-12-23T00:10:28.249Z,979.93
2022-12-23T00:11:30.072Z,979.99
2022-12-23T00:12:31.791Z,979.94
2022-12-23T00:13:33.457Z,979.95
2022-12-23T00:14:35.208Z,979.96
2022-12-23T00:15:36.976Z,979.99
2022-12-23T00:16:38.817Z,979.93
2022-12-23T00:17:40.388Z,979.93
2022-12-23T00:18:42.172Z,979.94
2022-12-23T00:19:43.886Z,979.96
2022-12-23T00:20:45.610Z,979.95
2022-12-23T00:21:47.322Z,979.97
2022-12-23T00:22:49.075Z,979.93
2022-12-23T00:23:50.791Z,979.93
2022-12-23T00:24:52.508Z,979.91
2022-12-23T00:25:54.267Z,979.9
2022-12-23T00:26:56.020Z,979.85
2022-12-23T00:27:57.775Z,979.85
2022-12-23T00:28:59.444Z,979.87
2022-12-23T00:30:01.235Z,979.86
2022-12-23T00:31:02.939Z,979.89
2022-12-23T00:32:04.834Z,979.87
2022-12-23T00:33:06.415Z,979.87
2022-12-23T00:34:08.115Z,979.87
2022-12-23T00:35:09.836Z,979.85
2022-12-23T00:36:11.743Z,979.89
2022-12-23T00:37:13.333Z,979.82
2022-12-23T00:38:15.066Z,979.84
2022-12-23T00:39:17.049Z,979.81
2022-12-23T00:40:18.512Z,979.83
2022-12-23T00:41:20.292Z,979.88
2022-12-23T00:42:22.007Z,979.9
2022-12-23T00:43:23.722Z,979.89
2022-12-23T00:44:25.515Z,979.91
2022-12-23T00:45:27.239Z,979.91
2022-12-23T00:46:28.981Z,979.94
2022-12-23T00:47:30.694Z,979.95
2022-12-23T00:48:32.403Z,979.99
2022-12-23T00:49:34.129Z,979.97
2022-12-23T00:50:35.855Z,980
2022-12-23T00:51:37.585Z,980.01
2022-12-23T00:52:39.370Z,979.98
2022-12-23T00:53:41.082Z,979.98
2022-12-23T00:54:42.833Z,980.03
2022-12-23T00:55:44.513Z,980.08
2022-12-23T00:56:46.247Z,980.09
2022-12-23T00:57:47.985Z,980.07
2022-12-23T00:58:49.738Z,980.06
2022-12-23T00:59:51.452Z,980.04
2022-12-23T01:00:53.233Z,980
2022-12-23T01:01:55.118Z,980.01
2022-12-23T01:02:56.862Z,980.07
2022-12-23T01:03:58.398Z,980.07
2022-12-23T01:05:00.207Z,980.13
2022-12-23T01:06:01.866Z,980.13
2022-12-23T01:07:03.619Z,980.09
2022-12-23T01:08:05.346Z,980.06
2022-12-23T01:09:07.088Z,980.11
2022-12-23T01:10:08.846Z,980.12
2022-12-23T01:11:10.545Z,980.08
2022-12-23T01:12:12.309Z,980.07
2022-12-23T01:13:14.048Z,980.11
2022-12-23T01:14:15.807Z,980.1
2022-12-23T01:15:17.504Z,980.17
2022-12-23T01:16:19.291Z,980.25
2022-12-23T01:17:21.035Z,980.25
2022-12-23T01:18:22.708Z,980.3
2022-12-23T01:19:24.423Z,980.28
2022-12-23T01:20:26.156Z,980.24
2022-12-23T01:21:27.979Z,980.29
2022-12-23T01:22:29.675Z,980.35
2022-12-23T01:23:31.351Z,980.44
2022-12-23T01:24:33.157Z,980.51
2022-12-23T01:25:34.802Z,980.45
2022-12-23T01:26:36.597Z,980.45
2022-12-23T01:27:38.308Z,980.44
2022-12-23T01:28:40.029Z,980.49
2022-12-23T01:29:41.781Z,980.49
2022-12-23T01:30:43.477Z,980.55
2022-12-23T01:31:45.284Z,980.5
2022-12-23T01:32:46.974Z,980.55
2022-12-23T01:33:48.714Z,980.57
2022-12-23T01:34:50.496Z,980.55
2022-12-23T01:35:52.185Z,980.56
2022-12-23T01:36:53.890Z,980.62
2022-12-23T01:37:55.654Z,980.64
2022-12-23T01:38:57.386Z,980.6
2022-12-23T01:39:59.137Z,980.64
2022-12-23T01:41:00.876Z,980.67
2022-12-23T01:42:02.545Z,980.68
2022-12-23T01:43:04.302Z,980.74
2022-12-23T01:44:06.058Z,980.72
2022-12-23T01:45:07.787Z,980.67
2022-12-23T01:46:09.556Z,980.68
2022-12-23T01:47:11.263Z,980.73
2022-12-23T01:48:12.979Z,980.74
2022-12-23T01:49:14.684Z,980.77
2022-12-23T01:50:16.469Z,980.76
2022-12-23T01:51:18.212Z,980.76
2022-12-23T01:52:19.892Z,980.79
2022-12-23T01:53:21.641Z,980.81
2022-12-23T01:54:23.371Z,980.81
2022-12-23T01:55:25.095Z,980.85
2022-12-23T01:56:26.805Z,980.91
2022-12-23T01:57:28.556Z,980.97
2022-12-23T01:58:30.314Z,981.02
2022-12-23T01:59:32.022Z,980.99
2022-12-23T02:00:33.749Z,981.01
2022-12-23T02:01:35.639Z,981.02
2022-12-23T02:02:37.439Z,981.06
2022-12-23T02:03:39.026Z,981.12
2022-12-23T02:04:40.672Z,981.05
2022-12-23T02:05:42.452Z,981.16
2022-12-23T02:06:44.142Z,981.15
2022-12-23T02:07:45.877Z,981.12
2022-12-23T02:08:47.622Z,981.2
2022-12-23T02:09:49.389Z,981.2
2022-12-23T02:10:51.082Z,981.14
2022-12-23T02:11:52.828Z,981.22
2022-12-23T02:12:54.574Z,981.23
2022-12-23T02:13:56.295Z,981.25
2022-12-23T02:14:58.047Z,981.27
2022-12-23T02:15:59.755Z,981.29
2022-12-23T02:17:01.597Z,981.26
2022-12-23T02:18:03.203Z,981.22
2022-12-23T02:19:04.955Z,981.25
2022-12-23T02:20:06.681Z,981.32
2022-12-23T02:21:08.413Z,981.24
2022-12-23T02:22:10.141Z,981.31
2022-12-23T02:23:11.919Z,981.36
2022-12-23T02:24:13.658Z,981.38
2022-12-23T02:25:15.373Z,981.42
2022-12-23T02:26:17.088Z,981.4
2022-12-23T02:27:18.817Z,981.41
2022-12-23T02:28:20.562Z,981.39
2022-12-23T02:29:22.326Z,981.38
2022-12-23T02:30:24.003Z,981.41
2022-12-23T02:31:25.809Z,981.42
2022-12-23T02:32:27.480Z,981.45
2022-12-23T02:33:29.243Z,981.42
2022-12-23T02:34:30.978Z,981.4
2022-12-23T02:35:32.661Z,981.43
2022-12-23T02:36:34.442Z,981.43
2022-12-23T02:37:36.153Z,981.42
2022-12-23T02:38:37.866Z,981.41
2022-12-23T02:39:39.600Z,981.36
2022-12-23T02:40:41.401Z,981.33
2022-12-23T02:41:43.136Z,981.32
2022-12-23T02:42:44.816Z,981.32
2022-12-23T02:43:46.542Z,981.33
2022-12-23T02:44:48.286Z,981.28
2022-12-23T02:45:50.095Z,981.36
2022-12-23T02:46:51.787Z,981.36
2022-12-23T02:47:53.472Z,981.45
2022-12-23T02:48:55.222Z,981.39
2022-12-23T02:49:56.937Z,981.42
2022-12-23T02:50:58.719Z,981.43
2022-12-23T02:52:00.397Z,981.39
2022-12-23T02:53:02.111Z,981.46
2022-12-23T02:54:03.870Z,981.43
2022-12-23T02:55:05.577Z,981.45
2022-12-23T02:56:07.314Z,981.4
2022-12-23T02:57:09.053Z,981.43
2022-12-23T02:58:10.756Z,981.46
2022-12-23T02:59:12.507Z,981.41
2022-12-23T03:00:14.205Z,981.44
2022-12-23T03:01:16.026Z,981.4
2022-12-23T03:02:17.846Z,981.4
2022-12-23T03:03:19.456Z,981.39
2022-12-23T03:04:21.122Z,981.41
2022-12-23T03:05:22.829Z,981.4
2022-12-23T03:06:24.536Z,981.43
2022-12-23T03:07:26.290Z,981.45
2022-12-23T03:08:28.018Z,981.47
2022-12-23T03:09:29.766Z,981.51
2022-12-23T03:10:31.536Z,981.54
2022-12-23T03:11:33.235Z,981.54
2022-12-23T03:12:34.988Z,981.57
2022-12-23T03:13:36.694Z,981.57
2022-12-23T03:14:38.433Z,981.58
2022-12-23T03:15:40.258Z,981.63
2022-12-23T03:16:41.901Z,981.63
2022-12-23T03:17:43.667Z,981.62
2022-12-23T03:18:45.375Z,981.62
2022-12-23T03:19:47.085Z,981.62
2022-12-23T03:20:48.845Z,981.65
2022-12-23T03:21:50.578Z,981.64
2022-12-23T03:22:52.317Z,981.62
2022-12-23T03:23:55.974Z,981.67
2022-12-23T03:24:55.768Z,981.63
2022-12-23T03:25:57.531Z,981.62
2022-12-23T03:26:59.261Z,981.63
2022-12-23T03:28:00.968Z,981.65
2022-12-23T03:29:02.724Z,981.7
2022-12-23T03:30:04.413Z,981.69
2022-12-23T03:31:06.247Z,981.68
2022-12-23T03:32:07.907Z,981.59
2022-12-23T03:33:09.653Z,981.67
2022-12-23T03:34:11.383Z,981.69
2022-12-23T03:35:13.075Z,981.76
2022-12-23T03:36:14.858Z,981.74
2022-12-23T03:37:16.552Z,981.75
2022-12-23T03:38:18.329Z,981.82
2022-12-23T03:39:20.038Z,981.85
2022-12-23T03:40:21.749Z,981.89
2022-12-23T03:41:23.494Z,981.93
2022-12-23T03:42:25.238Z,981.91
2022-12-23T03:43:26.957Z,981.94
2022-12-23T03:44:28.711Z,981.88
2022-12-23T03:45:39.816Z,981.89
2022-12-23T03:46:32.276Z,981.84
2022-12-23T03:47:33.871Z,981.85
2022-12-23T03:48:35.637Z,981.91
2022-12-23T03:49:37.377Z,981.91
2022-12-23T03:50:39.098Z,981.97
2022-12-23T03:51:40.832Z,981.98
2022-12-23T03:52:42.547Z,982
2022-12-23T03:53:44.269Z,982.01
2022-12-23T03:54:46.041Z,981.95
2022-12-23T03:55:47.788Z,981.99
2022-12-23T03:56:49.495Z,982.03
2022-12-23T03:57:51.212Z,982.04
2022-12-23T03:58:52.957Z,982.02
2022-12-23T03:59:54.708Z,982.02
2022-12-23T04:00:56.398Z,982.03
2022-12-23T04:01:58.227Z,982.08
2022-12-23T04:03:00.143Z,982.06
2022-12-23T04:04:01.717Z,982.12
2022-12-23T04:05:03.333Z,982.14
2022-12-23T04:06:05.111Z,982.08
2022-12-23T04:07:06.824Z,982.08
2022-12-23T04:08:08.535Z,982.09
2022-12-23T04:09:10.281Z,982.05
2022-12-23T04:10:12.030Z,982.03
2022-12-23T04:11:13.737Z,982.12
2022-12-23T04:12:15.487Z,982.2
2022-12-23T04:13:17.211Z,982.19
2022-12-23T04:14:18.940Z,982.23
2022-12-23T04:15:20.657Z,982.19
2022-12-23T04:16:22.524Z,982.19
2022-12-23T04:17:24.074Z,982.2
2022-12-23T04:18:25.806Z,982.19
2022-12-23T04:19:27.505Z,982.15
2022-12-23T04:20:29.244Z,982.16
2022-12-23T04:21:30.961Z,982.07
2022-12-23T04:22:32.709Z,982
2022-12-23T04:23:34.422Z,981.98
2022-12-23T04:24:36.129Z,981.98
2022-12-23T04:25:37.876Z,982
2022-12-23T04:26:39.585Z,982.03
2022-12-23T04:27:41.328Z,982.13
2022-12-23T04:28:43.039Z,982.16
2022-12-23T04:29:44.769Z,982.18
2022-12-23T04:30:46.470Z,982.26
2022-12-23T04:31:48.327Z,982.23
2022-12-23T04:32:49.955Z,982.24
2022-12-23T04:33:51.663Z,982.27
2022-12-23T04:34:53.357Z,982.23
2022-12-23T04:35:55.084Z,982.17
2022-12-23T04:36:56.813Z,982.14
2022-12-23T04:37:58.539Z,982.09
2022-12-23T04:39:00.317Z,982.06
2022-12-23T04:40:02.034Z,982.02
2022-12-23T04:41:03.713Z,982.01
2022-12-23T04:42:05.480Z,982.01
2022-12-23T04:43:07.237Z,982.02
2022-12-23T04:44:08.983Z,982.08
2022-12-23T04:45:10.665Z,982.1
2022-12-23T04:46:12.467Z,982.12
2022-12-23T04:47:14.170Z,982.2
2022-12-23T04:48:15.889Z,982.22
2022-12-23T04:49:17.606Z,982.22
2022-12-23T04:50:19.358Z,982.26
2022-12-23T04:51:21.097Z,982.27
2022-12-23T04:52:22.803Z,982.31
2022-12-23T04:53:24.519Z,982.36
2022-12-23T04:54:26.236Z,982.33
2022-12-23T04:55:28.013Z,982.37
2022-12-23T04:56:29.742Z,982.32
2022-12-23T04:57:31.496Z,982.33
2022-12-23T04:58:33.226Z,982.29
2022-12-23T04:59:34.968Z,982.34
2022-12-23T05:00:39.748Z,982.35
2022-12-23T05:01:38.685Z,982.39
2022-12-23T05:02:40.323Z,982.37
2022-12-23T05:03:41.890Z,982.37
2022-12-23T05:04:43.692Z,982.42
2022-12-23T05:05:45.348Z,982.36
2022-12-23T05:06:47.062Z,982.35
2022-12-23T05:07:48.780Z,982.33
2022-12-23T05:08:50.550Z,982.29
2022-12-23T05:09:52.255Z,982.35
2022-12-23T05:10:54.042Z,982.31
2022-12-23T05:11:55.722Z,982.27
2022-12-23T05:12:57.456Z,982.32
2022-12-23T05:13:59.236Z,982.29
2022-12-23T05:15:00.926Z,982.33
2022-12-23T05:16:02.715Z,982.31
2022-12-23T05:17:07.737Z,982.36
2022-12-23T05:18:06.130Z,982.35
2022-12-23T05:19:07.851Z,982.39
2022-12-23T05:20:09.600Z,982.36
2022-12-23T05:21:11.392Z,982.41
2022-12-23T05:22:13.081Z,982.38
2022-12-23T05:23:14.783Z,982.43
2022-12-23T05:24:16.526Z,982.44
2022-12-23T05:25:18.275Z,982.41
2022-12-23T05:26:19.996Z,982.45
2022-12-23T05:27:21.760Z,982.44
2022-12-23T05:28:23.448Z,982.48
2022-12-23T05:29:25.169Z,982.44
2022-12-23T05:30:26.907Z,982.49
2022-12-23T05:31:28.749Z,982.47
2022-12-23T05:32:30.377Z,982.46
2022-12-23T05:33:32.291Z,982.46
2022-12-23T05:34:33.898Z,982.41
2022-12-23T05:35:35.617Z,982.45
2022-12-23T05:36:37.307Z,982.47
2022-12-23T05:37:39.031Z,982.48
2022-12-23T05:38:40.828Z,982.5
2022-12-23T05:39:42.522Z,982.45
2022-12-23T05:40:44.244Z,982.47
2022-12-23T05:41:46.023Z,982.46
2022-12-23T05:42:47.701Z,982.49
2022-12-23T05:43:49.730Z,982.59
2022-12-23T05:44:51.174Z,982.47
2022-12-23T05:45:53.023Z,982.44
2022-12-23T05:46:54.648Z,982.44
2022-12-23T05:47:56.390Z,982.51
2022-12-23T05:48:58.133Z,982.47
2022-12-23T05:49:59.832Z,982.44
2022-12-23T05:51:01.609Z,982.53
2022-12-23T05:52:03.351Z,982.57
2022-12-23T05:53:05.061Z,982.6
2022-12-23T05:54:06.773Z,982.55
2022-12-23T05:55:08.499Z,982.6
2022-12-23T05:56:10.263Z,982.62
2022-12-23T05:57:12.012Z,982.66
2022-12-23T05:58:13.771Z,982.71
2022-12-23T05:59:15.439Z,982.69
2022-12-23T06:00:17.187Z,982.68
2022-12-23T06:01:18.899Z,982.7
2022-12-23T06:02:20.800Z,982.68
2022-12-23T06:03:22.584Z,982.61
2022-12-23T06:04:24.195Z,982.59
2022-12-23T06:05:25.843Z,982.57
2022-12-23T06:06:27.573Z,982.57
2022-12-23T06:07:29.341Z,982.54
2022-12-23T06:08:31.093Z,982.53
2022-12-23T06:09:32.816Z,982.55
2022-12-23T06:10:34.516Z,982.5
2022-12-23T06:11:36.240Z,982.53
2022-12-23T06:12:37.989Z,982.52
2022-12-23T06:13:39.702Z,982.54
2022-12-23T06:14:41.445Z,982.59
2022-12-23T06:15:43.161Z,982.53
2022-12-23T06:16:45.011Z,982.61
2022-12-23T06:17:46.653Z,982.55
2022-12-23T06:18:48.408Z,982.48
2022-12-23T06:19:50.110Z,982.49
2022-12-23T06:20:51.875Z,982.53
2022-12-23T06:21:53.577Z,982.56
2022-12-23T06:22:55.318Z,982.59
2022-12-23T06:23:57.113Z,982.64
2022-12-23T06:24:58.810Z,982.69
2022-12-23T06:26:00.539Z,982.7
2022-12-23T06:27:02.276Z,982.71
2022-12-23T06:28:03.971Z,982.81
2022-12-23T06:29:05.727Z,982.78
2022-12-23T06:30:07.436Z,982.78
2022-12-23T06:31:09.210Z,982.82
2022-12-23T06:32:11.055Z,982.82
2022-12-23T06:33:12.687Z,982.84
2022-12-23T06:34:14.429Z,982.79
2022-12-23T06:35:16.120Z,982.82
2022-12-23T06:36:17.856Z,982.84
2022-12-23T06:37:19.566Z,982.78
2022-12-23T06:38:21.305Z,982.8
2022-12-23T06:39:23.085Z,982.81
2022-12-23T06:40:38.853Z,982.79
2022-12-23T06:41:41.981Z,982.8
2022-12-23T06:42:43.673Z,982.75
2022-12-23T06:43:48.689Z,982.78
2022-12-23T06:44:47.167Z,982.83
2022-12-23T06:45:48.883Z,982.81
2022-12-23T06:46:50.609Z,982.76
2022-12-23T06:47:52.317Z,982.78
2022-12-23T06:48:54.080Z,982.78
2022-12-23T06:49:55.787Z,982.82
2022-12-23T06:50:57.508Z,982.77
2022-12-23T06:51:59.244Z,982.77
2022-12-23T06:53:01.020Z,982.77
2022-12-23T06:54:02.734Z,982.82
2022-12-23T06:55:04.455Z,982.78
2022-12-23T06:56:06.234Z,982.77
2022-12-23T06:57:07.910Z,982.75
2022-12-23T06:58:09.686Z,982.74
2022-12-23T06:59:11.380Z,982.76
2022-12-23T07:00:13.096Z,982.72
2022-12-23T07:01:14.934Z,982.72
2022-12-23T07:02:16.943Z,982.68
2022-12-23T07:03:23.732Z,982.69
2022-12-23T07:04:24.400Z,982.69
2022-12-23T07:05:30.624Z,982.67
2022-12-23T07:06:30.183Z,982.63
2022-12-23T07:07:30.384Z,982.65
2022-12-23T07:08:32.207Z,982.62
2022-12-23T07:09:33.839Z,982.64
2022-12-23T07:10:36.754Z,982.6
2022-12-23T07:13:05.176Z,982.66
2022-12-23T07:14:06.866Z,982.63
2022-12-23T07:15:27.054Z,982.65
2022-12-23T07:16:30.414Z,982.61
2022-12-23T07:17:30.633Z,982.6
2022-12-23T07:18:37.754Z,982.57
2022-12-23T07:19:39.273Z,982.65
2022-12-23T07:21:19.984Z,982.63
2022-12-23T07:22:31.622Z,982.7
2022-12-23T07:23:33.550Z,982.71
2022-12-23T07:24:35.331Z,982.78
2022-12-23T07:25:37.008Z,982.74
2022-12-23T07:26:56.511Z,982.75
2022-12-23T07:27:57.322Z,982.82
2022-12-23T07:29:08.500Z,982.81
2022-12-23T07:30:45.820Z,982.88
2022-12-23T07:31:47.018Z,982.9
2022-12-23T07:32:51.984Z,982.93
2022-12-23T07:34:16.542Z,982.92
2022-12-23T07:35:47.786Z,982.83
2022-12-23T07:36:49.512Z,982.86
2022-12-23T07:38:22.021Z,982.89
2022-12-23T07:39:43.084Z,982.87
2022-12-23T07:40:54.538Z,982.98
2022-12-23T07:42:45.639Z,983
2022-12-23T07:43:51.696Z,982.98
2022-12-23T07:44:53.989Z,982.96
2022-12-23T07:45:59.878Z,982.99
2022-12-23T07:46:57.392Z,982.97
2022-12-23T07:48:03.997Z,983.03
2022-12-23T07:49:14.444Z,983.11
2022-12-23T07:50:16.059Z,983.06
2022-12-23T07:51:24.672Z,983.06
2022-12-23T07:52:24.684Z,983.1
2022-12-23T07:53:26.517Z,983.09
2022-12-23T07:54:28.378Z,983.08
2022-12-23T07:55:29.839Z,983.12
2022-12-23T07:56:31.695Z,983.11
2022-12-23T07:58:36.625Z,983
2022-12-23T07:59:42.619Z,982.98
2022-12-23T08:00:45.209Z,982.94
2022-12-23T08:01:54.073Z,982.97
2022-12-23T08:02:59.112Z,982.95
2022-12-23T08:04:00.663Z,982.93
2022-12-23T08:05:02.467Z,982.9
2022-12-23T08:06:22.412Z,982.86
2022-12-23T08:07:38.955Z,982.9
2022-12-23T08:08:41.441Z,982.91
2022-12-23T08:09:43.240Z,982.86
2022-12-23T08:10:48.536Z,982.79
2022-12-23T08:11:46.719Z,982.77
2022-12-23T08:12:48.441Z,982.77
2022-12-23T08:13:50.158Z,982.74
2022-12-23T08:14:51.920Z,982.73
2022-12-23T08:15:53.638Z,982.77
2022-12-23T08:16:55.365Z,982.79
2022-12-23T08:17:57.075Z,982.77
2022-12-23T08:18:58.835Z,982.78
2022-12-23T08:20:00.524Z,982.8
2022-12-23T08:21:02.279Z,982.82
2022-12-23T08:22:04.046Z,982.83
2022-12-23T08:23:05.791Z,982.82
2022-12-23T08:24:28.919Z,982.87
2022-12-23T08:25:29.790Z,982.86
2022-12-23T08:26:31.543Z,982.9
2022-12-23T08:28:58.267Z,982.93
2022-12-23T08:30:00.721Z,982.94
2022-12-23T08:31:02.473Z,983.01
2022-12-23T08:32:04.196Z,982.99
2022-12-23T08:33:05.934Z,983.03
2022-12-23T08:34:07.673Z,983.03
2022-12-23T08:35:09.398Z,983.04
2022-12-23T08:36:23.262Z,983.09
2022-12-23T08:37:22.991Z,983.13
2022-12-23T08:38:25.189Z,983.14
2022-12-23T08:39:26.508Z,983.11
2022-12-23T08:40:28.217Z,983.09
2022-12-23T08:41:29.989Z,983.12
2022-12-23T08:42:31.705Z,983.14
2022-12-23T08:43:36.007Z,983.17
2022-12-23T08:44:35.145Z,983.12
2022-12-23T08:45:36.878Z,983.13
2022-12-23T08:46:38.676Z,983.13
2022-12-23T08:47:40.347Z,983.1
2022-12-23T08:48:47.088Z,983.14
2022-12-23T08:50:52.643Z,983.19
2022-12-23T08:51:54.408Z,983.19
2022-12-23T08:52:56.105Z,983.19
2022-12-23T08:54:00.422Z,983.15
2022-12-23T08:54:59.603Z,983.15
2022-12-23T08:56:01.304Z,983.11
2022-12-23T08:57:03.047Z,983.06
2022-12-23T08:58:04.910Z,983.08
2022-12-23T08:59:06.534Z,983.07
2022-12-23T09:00:08.345Z,983.07
2022-12-23T09:01:35.897Z,983
2022-12-23T09:02:47.576Z,983
2022-12-23T09:03:52.477Z,983
2022-12-23T09:04:54.140Z,982.99
2022-12-23T09:06:03.255Z,982.92
2022-12-23T09:07:04.965Z,982.92
2022-12-23T09:08:06.695Z,982.96
2022-12-23T09:09:08.417Z,982.98
2022-12-23T09:10:10.151Z,983.02
2022-12-23T09:11:41.065Z,983.07
2022-12-23T09:12:42.738Z,983.03
2022-12-23T09:13:44.489Z,983.06
2022-12-23T09:14:51.155Z,983.11
2022-12-23T09:15:53.968Z,983.12
2022-12-23T09:16:58.501Z,983.14
2022-12-23T09:19:53.697Z,983.06
2022-12-23T09:20:58.462Z,983.05
2022-12-23T09:22:00.175Z,983.08
2022-12-23T09:23:06.988Z,983.08
2022-12-23T09:24:29.047Z,983.05
2022-12-23T09:25:30.796Z,982.98
2022-12-23T09:26:32.600Z,983
2022-12-23T09:27:35.469Z,982.99
2022-12-23T09:28:36.000Z,983.01
2022-12-23T09:29:37.739Z,983.04
2022-12-23T09:30:39.475Z,983.07
2022-12-23T09:31:41.261Z,983.11
2022-12-23T09:32:42.936Z,983.17
2022-12-23T09:33:44.643Z,983.08
2022-12-23T09:34:46.387Z,983.07
2022-12-23T09:35:48.136Z,983.07
2022-12-23T09:36:55.060Z,983
2022-12-23T09:37:51.575Z,983.05
2022-12-23T09:38:53.310Z,983.05
2022-12-23T09:39:55.048Z,983.05
2022-12-23T09:40:56.767Z,983.05
2022-12-23T09:41:58.513Z,983.06
2022-12-23T09:43:00.231Z,983.05
2022-12-23T09:44:02.010Z,983.08
2022-12-23T09:45:03.710Z,983.03
2022-12-23T09:46:05.505Z,982.99
2022-12-23T09:47:07.210Z,982.99
2022-12-23T09:48:08.919Z,982.96
2022-12-23T09:49:10.651Z,982.99
2022-12-23T09:50:12.380Z,982.95
2022-12-23T09:51:14.123Z,982.94
2022-12-23T09:52:15.844Z,982.91
2022-12-23T09:53:17.573Z,982.91
2022-12-23T09:54:19.334Z,982.98
2022-12-23T09:55:21.047Z,982.95
2022-12-23T09:56:22.811Z,982.94
2022-12-23T09:57:24.516Z,983.01
2022-12-23T09:58:26.261Z,982.97
2022-12-23T09:59:28.053Z,982.99
2022-12-23T10:00:29.732Z,982.99
2022-12-23T10:01:31.645Z,983
2022-12-23T10:02:33.530Z,982.98
2022-12-23T10:03:35.236Z,983.02
2022-12-23T10:04:36.774Z,982.97
2022-12-23T10:05:38.425Z,983.01
2022-12-23T10:06:40.123Z,982.89
2022-12-23T10:07:41.880Z,983
2022-12-23T10:08:43.596Z,982.92
2022-12-23T10:09:45.318Z,982.93
2022-12-23T10:10:47.092Z,982.95
2022-12-23T10:11:48.791Z,982.9
2022-12-23T10:12:50.538Z,982.89
2022-12-23T10:13:52.272Z,982.87
2022-12-23T10:14:53.990Z,982.87
2022-12-23T10:15:57.061Z,982.88
2022-12-23T10:16:57.485Z,982.86
2022-12-23T10:17:59.172Z,982.88
2022-12-23T10:19:00.940Z,982.85
2022-12-23T10:20:02.662Z,982.85
2022-12-23T10:21:04.405Z,982.85
2022-12-23T10:22:06.179Z,982.88
2022-12-23T10:23:07.841Z,982.86
2022-12-23T10:24:09.576Z,982.82
2022-12-23T10:25:11.356Z,982.81
2022-12-23T10:26:13.053Z,982.82
2022-12-23T10:27:14.783Z,982.79
2022-12-23T10:28:17.627Z,982.72
2022-12-23T10:29:19.438Z,982.75
2022-12-23T10:30:51.408Z,982.69
2022-12-23T10:31:39.661Z,982.7
2022-12-23T10:32:23.516Z,982.7
2022-12-23T10:33:25.408Z,982.71
2022-12-23T10:34:26.973Z,982.67
2022-12-23T10:35:28.697Z,982.62
2022-12-23T10:36:30.456Z,982.6
2022-12-23T10:37:32.157Z,982.48
2022-12-23T10:38:33.913Z,982.48
2022-12-23T10:39:35.657Z,982.4
2022-12-23T10:40:37.358Z,982.39
2022-12-23T10:41:39.069Z,982.35
2022-12-23T10:42:40.795Z,982.35
2022-12-23T10:43:42.597Z,982.32
2022-12-23T10:44:44.255Z,982.25
2022-12-23T10:45:45.991Z,982.26
2022-12-23T10:46:47.826Z,982.25
2022-12-23T10:47:49.428Z,982.18
2022-12-23T10:48:51.156Z,982.21
2022-12-23T10:49:54.359Z,982.11
2022-12-23T10:50:54.626Z,982.11
2022-12-23T10:51:56.403Z,982.03
2022-12-23T10:52:58.102Z,982.01
2022-12-23T10:54:00.073Z,981.93
2022-12-23T10:55:01.584Z,981.92
2022-12-23T10:56:03.293Z,981.9
2022-12-23T10:57:05.021Z,981.9
2022-12-23T10:58:06.771Z,981.87
2022-12-23T10:59:08.495Z,981.86
2022-12-23T11:00:10.245Z,981.82
2022-12-23T11:01:18.658Z,981.86
2022-12-23T11:02:13.992Z,981.86
2022-12-23T11:03:15.573Z,981.88
2022-12-23T11:04:17.174Z,981.9
2022-12-23T11:05:18.906Z,981.86
2022-12-23T11:06:20.619Z,981.86
2022-12-23T11:07:43.379Z,981.81
2022-12-23T11:08:24.089Z,981.78
2022-12-23T11:09:25.805Z,981.76
2022-12-23T11:10:27.563Z,981.74
2022-12-23T11:11:29.300Z,981.66
2022-12-23T11:12:31.018Z,981.63
2022-12-23T11:13:32.769Z,981.54
2022-12-23T11:14:34.492Z,981.58
2022-12-23T11:15:36.231Z,981.5
2022-12-23T11:16:38.066Z,981.49
2022-12-23T11:17:39.697Z,981.48
2022-12-23T11:18:42.313Z,981.44
2022-12-23T11:19:43.167Z,981.44
2022-12-23T11:20:44.885Z,981.51
2022-12-23T11:21:46.663Z,981.52
2022-12-23T11:22:48.359Z,981.54
2022-12-23T11:23:50.112Z,981.58
2022-12-23T11:24:51.843Z,981.57
2022-12-23T11:25:53.632Z,981.56
2022-12-23T11:26:55.306Z,981.56
2022-12-23T11:27:57.029Z,981.51
2022-12-23T11:28:58.766Z,981.5
2022-12-23T11:30:00.493Z,981.44
2022-12-23T11:31:02.218Z,981.37
2022-12-23T11:32:04.043Z,981.38
2022-12-23T11:33:05.682Z,981.35
2022-12-23T11:34:07.470Z,981.28
2022-12-23T11:35:09.250Z,981.26
2022-12-23T11:36:10.893Z,981.24
2022-12-23T11:37:12.626Z,981.15
2022-12-23T11:38:14.366Z,981.11
2022-12-23T11:39:16.089Z,981.04
2022-12-23T11:40:17.842Z,981.04
2022-12-23T11:41:19.544Z,981.05
2022-12-23T11:42:21.303Z,981.09
2022-12-23T11:43:23.030Z,981.09
2022-12-23T11:44:24.741Z,981.1
2022-12-23T11:45:26.549Z,981.03
2022-12-23T11:46:28.326Z,981.03
2022-12-23T11:47:29.960Z,981.03
2022-12-23T11:48:31.679Z,981.04
2022-12-23T11:49:33.426Z,981.01
2022-12-23T11:50:35.162Z,980.93
2022-12-23T11:51:36.889Z,980.95
2022-12-23T11:52:38.628Z,980.91
2022-12-23T11:53:40.406Z,980.87
2022-12-23T11:54:42.081Z,980.91
2022-12-23T11:55:43.841Z,980.87
2022-12-23T11:56:45.614Z,980.84
2022-12-23T11:57:47.289Z,980.81
2022-12-23T11:58:49.020Z,980.81
2022-12-23T11:59:50.741Z,980.79
2022-12-23T12:00:55.846Z,980.73
2022-12-23T12:01:54.860Z,980.7
2022-12-23T12:04:02.628Z,980.61
2022-12-23T12:06:20.897Z,980.65
2022-12-23T12:07:44.779Z,980.61
2022-12-23T12:08:46.494Z,980.65
2022-12-23T12:09:48.251Z,980.68
2022-12-23T12:10:49.953Z,980.61
2022-12-23T12:11:51.685Z,980.65
2022-12-23T12:12:55.130Z,980.61
2022-12-23T12:13:55.167Z,980.59
2022-12-23T12:14:56.933Z,980.55
2022-12-23T12:15:58.652Z,980.54
2022-12-23T12:17:00.408Z,980.51
2022-12-23T12:18:02.072Z,980.51
2022-12-23T12:19:03.813Z,980.49
2022-12-23T12:20:05.713Z,980.47
2022-12-23T12:21:07.284Z,980.46
2022-12-23T12:22:09.013Z,980.43
2022-12-23T12:23:10.754Z,980.31
2022-12-23T12:24:18.859Z,980.34
2022-12-23T12:25:14.210Z,980.26
2022-12-23T12:26:15.941Z,980.21
2022-12-23T12:27:17.687Z,980.23
2022-12-23T12:28:19.407Z,980.15
2022-12-23T12:29:21.172Z,980.14
2022-12-23T12:30:23.230Z,980.11
2022-12-23T12:31:24.741Z,980.06
2022-12-23T12:32:26.338Z,980.1
2022-12-23T12:33:28.111Z,980.13
2022-12-23T12:34:29.831Z,980.16
2022-12-23T12:35:31.563Z,980.11
2022-12-23T12:36:33.351Z,980.07
2022-12-23T12:37:35.025Z,980.1
2022-12-23T12:38:36.751Z,980.11
2022-12-23T12:39:38.495Z,980.09
2022-12-23T12:40:40.268Z,980.02
2022-12-23T12:41:41.965Z,980.04
2022-12-23T12:42:43.696Z,980.01
2022-12-23T12:43:45.469Z,979.95
2022-12-23T12:44:47.165Z,979.94
2022-12-23T12:45:48.955Z,979.89
2022-12-23T12:46:50.618Z,979.86
2022-12-23T12:47:54.462Z,979.9
2022-12-23T12:48:54.074Z,979.84
2022-12-23T12:49:55.826Z,979.82
2022-12-23T12:50:57.551Z,979.81
2022-12-23T12:51:59.289Z,979.75
2022-12-23T12:53:01.026Z,979.74
2022-12-23T12:54:05.728Z,979.76
2022-12-23T12:55:04.486Z,979.73
2022-12-23T12:56:06.255Z,979.72
2022-12-23T12:57:07.937Z,979.71
2022-12-23T12:58:09.684Z,979.68
2022-12-23T12:59:11.427Z,979.62
2022-12-23T13:00:13.152Z,979.63
2022-12-23T13:01:14.919Z,979.61
2022-12-23T13:02:16.691Z,979.61
2022-12-23T13:03:18.362Z,979.62
2022-12-23T13:04:20.102Z,979.56
2022-12-23T13:05:21.841Z,979.46
2022-12-23T13:06:23.552Z,979.44
2022-12-23T13:07:25.290Z,979.45
2022-12-23T13:08:27.011Z,979.43
2022-12-23T13:09:28.749Z,979.46
2022-12-23T13:10:30.482Z,979.48
2022-12-23T13:11:32.211Z,979.51